createdAt,value
2019-05-02T00:01:48.178Z,34.33
2019-05-02T00:04:20.096Z,35.50
2019-05-02T00:07:05.646Z,43.70
2019-05-02T00:09:36.778Z,39.80
2019-05-02T00:12:09.674Z,33.95
2019-05-02T00:14:39.317Z,36.83
2019-05-02T00:17:09.367Z,29.70
2019-05-02T00:19:38.945Z,28.65
2019-05-02T00:22:12.215Z,43.40
2019-05-02T00:24:41.194Z,30.60
2019-05-02T00:27:11.110Z,31.87
2019-05-02T00:32:13.083Z,41.75
2019-05-02T00:34:42.698Z,35.75
2019-05-02T00:37:12.379Z,38.27
2019-05-02T00:39:45.143Z,41.13
2019-05-02T00:42:17.338Z,44.08
2019-05-02T00:44:46.904Z,39.25
2019-05-02T00:47:16.841Z,48.20
2019-05-02T00:49:48.247Z,50.70
2019-05-02T00:52:17.739Z,46.68
2019-05-02T00:54:47.183Z,40.25
2019-05-02T00:57:19.884Z,39.58
2019-05-02T00:59:47.678Z,36.55
2019-05-02T01:02:19.161Z,27.48
2019-05-02T01:04:50.328Z,20.52
2019-05-02T01:07:20.380Z,15.55
2019-05-02T01:09:51.059Z,22.32
2019-05-02T01:12:26.502Z,20.63
2019-05-02T01:14:51.875Z,22.42
2019-05-02T01:17:21.288Z,27.77
2019-05-02T01:19:51.477Z,21.80
2019-05-02T01:22:22.019Z,20.05
2019-05-02T01:24:51.548Z,20.27
2019-05-02T01:27:23.096Z,19.20
2019-05-02T01:29:54.186Z,17.25
2019-05-02T01:32:29.947Z,21.12
2019-05-02T01:35:07.236Z,18.37
2019-05-02T01:37:56.104Z,18.42
2019-05-02T01:40:25.697Z,19.73
2019-05-02T01:42:57.585Z,22.25
2019-05-02T01:45:27.040Z,18.52
2019-05-02T01:47:56.588Z,20.10
2019-05-02T01:50:28.948Z,15.50
2019-05-02T01:52:58.544Z,9.85
2019-05-02T01:55:28.231Z,11.80
2019-05-02T01:57:57.640Z,9.00
2019-05-02T02:00:27.086Z,10.23
2019-05-02T02:02:56.506Z,14.43
2019-05-02T02:05:27.581Z,15.15
2019-05-02T02:07:57.495Z,10.80
2019-05-02T02:10:26.917Z,11.70
2019-05-02T02:13:04.788Z,8.10
2019-05-02T02:15:29.059Z,8.50
2019-05-02T02:17:58.629Z,9.38
2019-05-02T02:20:29.729Z,12.30
2019-05-02T02:23:03.588Z,15.60
2019-05-02T02:25:42.585Z,19.52
2019-05-02T02:28:12.209Z,19.98
2019-05-02T02:30:41.729Z,12.47
2019-05-02T02:33:12.248Z,16.37
2019-05-02T02:35:49.553Z,15.48
2019-05-02T02:38:12.887Z,18.98
2019-05-02T02:40:42.336Z,13.88
2019-05-02T02:43:32.280Z,10.70
2019-05-02T02:45:51.726Z,12.68
2019-05-02T02:48:20.782Z,13.90
2019-05-02T02:50:50.287Z,20.05
2019-05-02T02:53:31.761Z,32.10
2019-05-02T02:56:04.792Z,34.10
2019-05-02T02:58:44.132Z,31.07
2019-05-02T03:01:05.719Z,14.50
2019-05-02T03:03:35.840Z,9.55
2019-05-02T03:06:07.722Z,9.20
2019-05-02T03:08:44.493Z,11.35
2019-05-02T03:11:08.657Z,11.80
2019-05-02T03:13:53.368Z,15.70
2019-05-02T03:16:21.541Z,17.75
2019-05-02T03:18:51.096Z,25.92
2019-05-02T03:21:22.558Z,31.05
2019-05-02T03:24:01.809Z,25.05
2019-05-02T03:26:23.022Z,21.75
2019-05-02T03:28:58.515Z,21.37
2019-05-02T03:31:29.603Z,21.33
2019-05-02T03:34:00.322Z,24.92
2019-05-02T03:36:30.948Z,18.20
2019-05-02T03:38:57.061Z,23.18
2019-05-02T03:41:26.850Z,19.20
2019-05-02T03:44:10.485Z,30.08
2019-05-02T03:46:27.793Z,32.20
2019-05-02T03:49:05.952Z,32.48
2019-05-02T03:51:28.607Z,30.70
2019-05-02T03:54:07.503Z,32.13
2019-05-02T03:56:31.336Z,30.70
2019-05-02T03:59:00.782Z,28.80
2019-05-02T04:01:34.739Z,32.37
2019-05-02T04:04:02.759Z,26.87
2019-05-02T04:06:32.680Z,22.98
2019-05-02T04:09:02.250Z,23.07
2019-05-02T04:11:38.750Z,27.80
2019-05-02T04:14:14.664Z,23.45
2019-05-02T04:16:35.116Z,23.80
2019-05-02T04:19:04.713Z,25.70
2019-05-02T04:21:34.948Z,21.43
2019-05-02T04:24:13.047Z,31.33
2019-05-02T04:26:36.153Z,37.70
2019-05-02T04:29:24.548Z,43.58
2019-05-02T04:31:50.123Z,45.10
2019-05-02T04:34:19.597Z,34.58
2019-05-02T04:37:00.243Z,29.98
2019-05-02T04:39:21.666Z,33.08
2019-05-02T04:41:51.501Z,30.25
2019-05-02T04:44:21.019Z,35.95
2019-05-02T04:46:50.547Z,32.10
2019-05-02T04:49:28.612Z,45.03
2019-05-02T04:52:01.633Z,40.98
2019-05-02T04:54:28.298Z,41.25
2019-05-02T04:56:55.396Z,48.78
2019-05-02T04:59:24.761Z,39.98
2019-05-02T05:01:57.616Z,43.50
2019-05-02T05:04:27.505Z,40.92
2019-05-02T05:07:00.951Z,42.03
2019-05-02T05:09:27.912Z,41.98
2019-05-02T05:11:59.006Z,46.53
2019-05-02T05:14:31.467Z,61.20
2019-05-02T05:16:59.947Z,54.73
2019-05-02T05:19:32.710Z,77.50
2019-05-02T05:22:04.692Z,53.80
2019-05-02T05:24:38.537Z,64.95
2019-05-02T05:27:08.284Z,62.45
2019-05-02T05:29:37.907Z,77.08
2019-05-02T05:32:10.023Z,67.12
2019-05-02T05:34:38.712Z,58.30
2019-05-02T05:37:13.247Z,69.17
2019-05-02T05:39:43.060Z,90.30
2019-05-02T05:42:12.699Z,87.95
2019-05-02T05:44:42.168Z,81.60
2019-05-02T05:47:12.098Z,114.17
2019-05-02T05:49:42.768Z,145.00
2019-05-02T05:52:12.235Z,115.57
2019-05-02T05:54:42.149Z,132.67
2019-05-02T05:57:12.195Z,120.87
2019-05-02T05:59:44.525Z,103.50
2019-05-02T06:02:14.761Z,123.22
2019-05-02T06:04:44.357Z,115.77
2019-05-02T06:07:13.735Z,129.30
2019-05-02T06:09:43.233Z,156.37
2019-05-02T06:12:12.752Z,126.97
2019-05-02T06:14:42.365Z,122.67
2019-05-02T06:19:41.340Z,122.82
2019-05-02T06:22:10.803Z,104.87
2019-05-02T06:24:40.222Z,100.53
2019-05-02T06:27:09.675Z,113.97
2019-05-02T06:29:39.283Z,104.85
2019-05-02T06:32:08.785Z,97.40
2019-05-02T06:34:46.004Z,95.65
2019-05-02T06:37:13.611Z,91.32
2019-05-02T06:39:40.582Z,99.03
2019-05-02T06:42:10.107Z,102.20
2019-05-02T06:44:39.763Z,102.12
2019-05-02T06:47:09.193Z,105.00
2019-05-02T06:49:38.615Z,92.85
2019-05-02T06:52:08.969Z,89.35
2019-05-02T06:54:38.467Z,99.67
2019-05-02T06:57:07.981Z,93.70
2019-05-02T06:59:37.542Z,108.92
2019-05-02T07:02:07.397Z,101.38
2019-05-02T07:04:36.981Z,106.25
2019-05-02T07:07:06.616Z,109.47
2019-05-02T07:09:41.088Z,108.72
2019-05-02T07:12:09.867Z,100.45
2019-05-02T07:14:38.649Z,93.42
2019-05-02T07:17:09.764Z,103.32
2019-05-02T07:19:40.948Z,90.72
2019-05-02T07:22:10.645Z,95.28
2019-05-02T07:24:40.155Z,97.50
2019-05-02T07:27:09.902Z,96.10
2019-05-02T07:29:39.426Z,102.67
2019-05-02T07:32:09.010Z,93.20
2019-05-02T07:34:38.495Z,105.47
2019-05-02T07:37:12.460Z,97.75
2019-05-02T07:39:40.915Z,102.10
2019-05-02T07:42:10.755Z,88.50
2019-05-02T07:44:40.261Z,94.97
2019-05-02T07:47:09.938Z,97.93
2019-05-02T07:49:39.402Z,98.67
2019-05-02T07:52:09.890Z,100.07
2019-05-02T07:54:39.418Z,106.85
2019-05-02T07:57:08.914Z,104.05
2019-05-02T07:59:38.411Z,94.92
2019-05-02T08:02:08.092Z,105.37
2019-05-02T08:04:37.578Z,99.37
2019-05-02T08:07:07.208Z,127.82
2019-05-02T08:09:39.341Z,115.40
2019-05-02T08:12:09.612Z,117.97
2019-05-02T08:14:39.301Z,133.07
2019-05-02T08:17:15.852Z,142.03
2019-05-02T08:19:41.741Z,121.22
2019-05-02T08:22:13.676Z,132.15
2019-05-02T08:24:43.412Z,120.28
2019-05-02T08:27:14.508Z,115.10
2019-05-02T08:29:43.955Z,107.25
2019-05-02T08:32:13.951Z,103.35
2019-05-02T08:34:46.282Z,95.70
2019-05-02T08:37:14.563Z,108.47
2019-05-02T08:39:44.118Z,99.55
2019-05-02T08:42:15.308Z,93.17
2019-05-02T08:44:51.047Z,88.80
2019-05-02T08:47:19.192Z,91.08
2019-05-02T08:49:49.408Z,90.32
2019-05-02T08:52:19.015Z,92.65
2019-05-02T08:54:48.556Z,98.75
2019-05-02T08:57:18.166Z,87.50
2019-05-02T08:59:47.563Z,91.90
2019-05-02T09:02:21.134Z,89.00
2019-05-02T09:04:57.965Z,77.90
2019-05-02T09:07:21.403Z,91.75
2019-05-02T09:09:51.048Z,82.42
2019-05-02T09:12:22.815Z,78.63
2019-05-02T09:14:52.168Z,81.92
2019-05-02T09:17:35.420Z,81.00
2019-05-02T09:20:02.222Z,81.75
2019-05-02T09:22:25.545Z,79.60
2019-05-02T09:24:54.942Z,80.07
2019-05-02T09:27:24.471Z,79.15
2019-05-02T09:29:53.955Z,86.47
2019-05-02T09:32:26.315Z,69.20
2019-05-02T09:34:56.614Z,70.47
2019-05-02T09:37:27.310Z,61.68
2019-05-02T09:39:56.819Z,63.52
2019-05-02T09:42:26.299Z,74.50
2019-05-02T09:44:58.698Z,71.25
2019-05-02T09:47:33.241Z,68.78
2019-05-02T09:50:09.951Z,68.50
2019-05-02T09:52:41.063Z,67.92
2019-05-02T09:55:12.168Z,66.40
2019-05-02T09:57:42.790Z,60.73
2019-05-02T10:00:36.404Z,65.42
2019-05-02T10:03:06.466Z,55.75
2019-05-02T10:05:36.029Z,57.35
2019-05-02T10:08:09.078Z,56.27
2019-05-02T10:10:41.831Z,58.30
2019-05-02T10:13:09.573Z,57.15
2019-05-02T10:15:39.164Z,55.45
2019-05-02T10:18:12.019Z,57.43
2019-05-02T10:20:41.886Z,56.73
2019-05-02T10:23:19.056Z,56.53
2019-05-02T10:25:46.761Z,59.30
2019-05-02T10:28:15.624Z,60.28
2019-05-02T10:30:47.382Z,55.92
2019-05-02T10:33:16.536Z,57.95
2019-05-02T10:35:47.680Z,54.75
2019-05-02T10:38:19.463Z,57.33
2019-05-02T10:40:53.483Z,65.62
2019-05-02T10:43:19.680Z,58.87
2019-05-02T10:45:56.714Z,56.45
2019-05-02T10:48:28.637Z,55.60
2019-05-02T10:51:15.102Z,57.48
2019-05-02T10:53:47.104Z,56.08
2019-05-02T10:56:17.177Z,65.28
2019-05-02T10:58:47.878Z,67.00
2019-05-02T11:01:19.134Z,65.30
2019-05-02T11:03:51.681Z,63.52
2019-05-02T11:06:22.212Z,65.50
2019-05-02T11:08:52.431Z,65.80
2019-05-02T11:11:23.450Z,66.03
2019-05-02T11:14:12.123Z,67.95
2019-05-02T11:16:49.086Z,62.58
2019-05-02T11:19:36.588Z,61.28
2019-05-02T11:22:06.215Z,68.25
2019-05-02T11:24:35.670Z,66.70
2019-05-02T11:27:08.019Z,64.87
2019-05-02T11:29:36.412Z,65.97
2019-05-02T11:32:06.392Z,60.77
2019-05-02T11:34:35.918Z,62.17
2019-05-02T11:37:05.573Z,67.60
2019-05-02T11:39:46.338Z,61.28
2019-05-02T11:42:09.262Z,64.62
2019-05-02T11:44:38.838Z,62.58
2019-05-02T11:47:08.368Z,66.53
2019-05-02T11:49:37.926Z,65.57
2019-05-02T11:52:07.495Z,68.70
2019-05-02T11:54:39.277Z,72.80
2019-05-02T11:57:08.138Z,73.83
2019-05-02T11:59:37.722Z,81.92
2019-05-02T12:02:09.379Z,90.57
2019-05-02T12:04:41.771Z,87.82
2019-05-02T12:07:12.747Z,92.47
2019-05-02T12:09:44.263Z,86.37
2019-05-02T12:12:15.680Z,100.45
2019-05-02T12:14:44.712Z,98.40
2019-05-02T12:17:14.227Z,108.22
2019-05-02T12:19:43.783Z,102.85
2019-05-02T12:22:16.917Z,103.32
2019-05-02T12:24:45.482Z,98.05
2019-05-02T12:27:15.040Z,104.72
2019-05-02T12:29:44.662Z,110.15
2019-05-02T12:32:15.822Z,112.12
2019-05-02T12:34:45.352Z,120.87
2019-05-02T12:37:15.012Z,116.30
2019-05-02T12:39:44.609Z,108.97
2019-05-02T12:42:14.441Z,129.10
2019-05-02T12:44:44.485Z,118.90
2019-05-02T12:47:14.179Z,103.27
2019-05-02T12:49:43.703Z,118.82
2019-05-02T12:52:16.203Z,117.27
2019-05-02T12:54:50.035Z,114.12
2019-05-02T12:57:21.902Z,111.95
2019-05-02T12:59:52.624Z,104.12
2019-05-02T13:02:23.719Z,106.03
2019-05-02T13:04:54.283Z,109.50
2019-05-02T13:07:23.857Z,114.13
2019-05-02T13:09:53.469Z,92.10
2019-05-02T13:12:32.297Z,95.20
2019-05-02T13:15:02.269Z,91.35
2019-05-02T13:17:35.732Z,84.37
2019-05-02T13:20:06.623Z,97.27
2019-05-02T13:22:38.094Z,96.65
2019-05-02T13:25:12.905Z,91.60
2019-05-02T13:27:47.119Z,89.13
2019-05-02T13:30:23.784Z,86.35
2019-05-02T13:32:57.810Z,88.17
2019-05-02T13:35:36.976Z,77.75
2019-05-02T13:38:06.610Z,80.03
2019-05-02T13:40:41.773Z,94.22
2019-05-02T13:43:12.741Z,88.00
2019-05-02T13:45:44.627Z,87.45
2019-05-02T13:48:14.152Z,93.17
2019-05-02T13:50:43.655Z,95.25
2019-05-02T13:53:13.126Z,78.47
2019-05-02T13:55:44.464Z,84.50
2019-05-02T13:58:14.096Z,76.65
2019-05-02T14:00:47.269Z,80.40
2019-05-02T14:03:19.440Z,78.67
2019-05-02T14:05:51.304Z,79.27
2019-05-02T14:08:27.603Z,76.70
2019-05-02T14:10:57.337Z,71.37
2019-05-02T14:13:26.812Z,68.78
2019-05-02T14:15:57.185Z,65.45
2019-05-02T14:18:28.932Z,62.78
2019-05-02T14:20:58.052Z,53.25
2019-05-02T14:23:28.094Z,56.98
2019-05-02T14:25:58.660Z,45.70
2019-05-02T14:28:32.252Z,45.33
2019-05-02T14:31:02.057Z,52.90
2019-05-02T14:33:33.161Z,49.35
2019-05-02T14:36:02.654Z,51.42
2019-05-02T14:38:32.274Z,54.70
2019-05-02T14:41:06.485Z,38.60
2019-05-02T14:43:53.545Z,32.45
2019-05-02T14:46:29.080Z,27.37
2019-05-02T14:48:57.725Z,24.90
2019-05-02T14:51:27.869Z,25.25
2019-05-02T14:54:03.804Z,21.97
2019-05-02T14:56:37.499Z,21.17
2019-05-02T14:59:09.106Z,23.22
2019-05-02T15:01:37.906Z,20.15
2019-05-02T15:06:38.290Z,23.25
2019-05-02T15:09:11.935Z,21.57
2019-05-02T15:11:59.128Z,21.45
2019-05-02T15:14:32.655Z,22.75
2019-05-02T15:17:02.715Z,26.15
2019-05-02T15:19:33.179Z,23.55
2019-05-02T15:22:03.052Z,22.58
2019-05-02T15:24:36.088Z,22.00
2019-05-02T15:27:12.089Z,24.85
2019-05-02T15:29:35.008Z,22.45
2019-05-02T15:32:15.441Z,25.20
2019-05-02T15:34:58.377Z,28.62
2019-05-02T15:48:03.369Z,21.33
2019-05-02T15:50:32.859Z,24.35
2019-05-02T15:53:09.783Z,22.48
2019-05-02T15:55:39.524Z,27.73
2019-05-02T15:58:08.152Z,24.23
2019-05-02T16:00:42.166Z,28.20
2019-05-02T16:03:12.224Z,26.57
2019-05-02T16:05:45.039Z,29.05
2019-05-02T16:08:13.142Z,29.32
2019-05-02T16:10:42.929Z,34.60
2019-05-02T16:13:16.990Z,31.40
2019-05-02T16:15:45.691Z,34.40
2019-05-02T16:18:15.271Z,30.17
2019-05-02T16:20:49.380Z,35.90
2019-05-02T16:23:29.876Z,28.67
2019-05-02T16:25:56.880Z,33.83
2019-05-02T16:28:25.089Z,33.92
2019-05-02T16:30:57.286Z,38.10
2019-05-02T16:33:26.804Z,31.85
2019-05-02T16:35:57.871Z,36.48
2019-05-02T16:38:32.393Z,31.77
2019-05-02T16:41:02.315Z,34.83
2019-05-02T16:43:32.774Z,29.82
2019-05-02T16:46:06.590Z,28.32
2019-05-02T16:48:37.581Z,28.62
2019-05-02T16:51:08.203Z,30.95
2019-05-02T16:53:36.614Z,28.65
2019-05-02T16:56:07.236Z,26.75
2019-05-02T16:58:38.041Z,29.20
2019-05-02T17:01:08.728Z,29.95
2019-05-02T17:03:39.773Z,28.00
2019-05-02T17:06:09.266Z,30.35
2019-05-02T17:08:41.878Z,29.20
2019-05-02T17:11:15.604Z,26.77
2019-05-02T17:13:44.203Z,28.40
2019-05-02T17:16:17.173Z,24.45
2019-05-02T17:18:48.400Z,24.72
2019-05-02T17:21:17.928Z,19.05
2019-05-02T17:23:49.698Z,22.62
2019-05-02T17:26:18.590Z,15.90
2019-05-02T17:28:48.220Z,15.20
2019-05-02T17:31:20.419Z,15.25
2019-05-02T17:33:50.946Z,12.82
2019-05-02T17:36:23.650Z,12.18
2019-05-02T17:38:54.005Z,13.03
2019-05-02T17:41:22.617Z,8.90
2019-05-02T17:46:25.738Z,11.85
2019-05-02T17:48:53.898Z,9.63
2019-05-02T17:51:32.839Z,11.12
2019-05-02T17:53:59.612Z,12.60
2019-05-02T17:56:29.167Z,9.37
2019-05-02T17:58:58.719Z,10.08
2019-05-02T18:01:35.289Z,11.10
2019-05-02T18:04:07.007Z,13.58
2019-05-02T18:06:35.806Z,8.83
2019-05-02T18:09:07.702Z,12.07
2019-05-02T18:11:37.873Z,10.15
2019-05-02T18:14:16.086Z,11.25
2019-05-02T18:16:39.384Z,8.85
2019-05-02T18:19:09.008Z,7.25
2019-05-02T18:21:38.462Z,7.70
2019-05-02T18:31:59.957Z,9.08
2019-05-02T18:34:29.664Z,7.47
2019-05-02T18:37:03.064Z,5.77
2019-05-02T18:39:36.752Z,10.88
2019-05-02T18:42:01.721Z,9.95
2019-05-02T18:44:32.584Z,6.03
2019-05-02T18:47:02.439Z,6.67
2019-05-02T18:49:33.894Z,7.60
2019-05-02T18:52:03.506Z,5.33
2019-05-02T18:54:33.876Z,8.23
2019-05-02T18:57:06.771Z,6.90
2019-05-02T18:59:36.407Z,6.28
2019-05-02T19:02:07.146Z,11.10
2019-05-02T19:04:39.721Z,8.20
2019-05-02T19:07:12.953Z,9.53
2019-05-02T19:09:48.479Z,7.90
2019-05-02T19:12:19.477Z,19.57
2019-05-02T19:14:41.999Z,8.28
2019-05-02T19:17:12.221Z,12.40
2019-05-02T19:19:43.413Z,11.28
2019-05-02T19:22:16.834Z,8.50
2019-05-02T19:24:44.289Z,9.78
2019-05-02T19:27:15.493Z,5.83
2019-05-02T19:29:48.213Z,9.00
2019-05-02T19:32:17.120Z,11.43
2019-05-02T19:34:47.496Z,7.97
2019-05-02T19:37:17.111Z,9.67
2019-05-02T19:39:48.698Z,9.20
2019-05-02T19:42:22.663Z,6.95
2019-05-02T19:44:49.254Z,14.58
2019-05-02T19:47:18.840Z,12.45
2019-05-02T19:49:52.382Z,8.38
2019-05-02T19:52:19.641Z,9.93
2019-05-02T19:54:49.232Z,10.38
2019-05-02T19:57:24.866Z,10.65
2019-05-02T19:59:50.160Z,9.35
2019-05-02T20:02:19.870Z,8.58
2019-05-02T20:04:49.468Z,9.70
2019-05-02T20:07:18.924Z,7.95
2019-05-02T20:09:48.503Z,10.03
2019-05-02T20:12:18.274Z,10.10
2019-05-02T20:14:47.989Z,6.92
2019-05-02T20:17:19.974Z,9.10
2019-05-02T20:19:50.354Z,6.83
2019-05-02T20:22:20.035Z,10.08
2019-05-02T20:24:55.208Z,7.80
2019-05-02T20:27:23.750Z,8.63
2019-05-02T20:29:53.457Z,16.65
2019-05-02T20:32:23.180Z,11.33
2019-05-02T20:34:52.737Z,11.48
2019-05-02T20:37:22.704Z,10.97
2019-05-02T20:39:52.440Z,13.03
2019-05-02T20:42:22.166Z,8.50
2019-05-02T20:44:52.767Z,17.50
2019-05-02T20:47:24.651Z,12.23
2019-05-02T20:49:54.353Z,12.18
2019-05-02T20:52:25.590Z,10.85
2019-05-02T20:54:55.372Z,8.83
2019-05-02T20:57:24.977Z,13.00
2019-05-02T20:59:54.534Z,15.90
2019-05-02T21:02:24.252Z,9.57
2019-05-02T21:04:53.944Z,8.30
2019-05-02T21:07:33.908Z,11.20
2019-05-02T21:10:09.252Z,6.70
2019-05-02T21:12:38.948Z,8.93
2019-05-02T21:15:12.330Z,7.70
2019-05-02T21:17:42.204Z,7.78
2019-05-02T21:20:12.445Z,10.50
2019-05-02T21:25:13.056Z,9.38
2019-05-02T21:27:43.956Z,7.95
2019-05-02T21:30:14.411Z,7.15
2019-05-02T21:32:43.963Z,7.60
2019-05-02T21:35:14.447Z,7.62
2019-05-02T21:37:43.977Z,5.83
2019-05-02T21:40:13.836Z,5.75
2019-05-02T21:42:43.350Z,7.77
2019-05-02T21:45:13.345Z,6.45
2019-05-02T21:47:44.072Z,7.97
2019-05-02T21:50:24.960Z,11.93
2019-05-02T21:53:09.267Z,7.75
2019-05-02T21:55:52.730Z,9.30
2019-05-02T21:58:22.354Z,8.33
2019-05-02T22:00:56.801Z,8.83
2019-05-02T22:03:29.592Z,9.38
2019-05-02T22:05:59.123Z,12.65
2019-05-02T22:08:32.178Z,11.68
2019-05-02T22:11:01.606Z,8.33
2019-05-02T22:13:33.015Z,12.33
2019-05-02T22:16:02.560Z,12.85
2019-05-02T22:18:32.239Z,12.28
2019-05-02T22:21:01.872Z,14.10
2019-05-02T22:23:33.838Z,10.23
2019-05-02T22:26:02.660Z,13.05
2019-05-02T22:28:32.678Z,14.00
2019-05-02T22:31:03.243Z,8.30
2019-05-02T22:33:32.960Z,9.50
2019-05-02T22:36:02.486Z,6.92
2019-05-02T22:38:39.467Z,10.68
2019-05-02T22:41:08.995Z,10.03
2019-05-02T22:43:38.485Z,12.33
2019-05-02T22:46:09.741Z,8.23
2019-05-02T22:48:39.221Z,8.88
2019-05-02T22:51:08.826Z,9.50
2019-05-02T22:53:38.384Z,10.57
2019-05-02T22:56:07.972Z,9.53
2019-05-02T22:58:37.541Z,9.63
2019-05-02T23:01:08.011Z,10.28
2019-05-02T23:06:06.462Z,9.53
2019-05-02T23:08:35.978Z,11.60
2019-05-02T23:11:05.641Z,8.73
2019-05-02T23:13:35.110Z,12.40
2019-05-02T23:16:04.780Z,15.35
2019-05-02T23:18:34.312Z,16.43
2019-05-02T23:21:04.075Z,10.72
2019-05-02T23:23:33.628Z,11.87
2019-05-02T23:26:12.702Z,11.18
2019-05-02T23:28:46.620Z,12.43
2019-05-02T23:31:18.064Z,15.72
2019-05-02T23:34:01.856Z,14.38
2019-05-02T23:36:32.468Z,12.05
2019-05-02T23:39:02.518Z,10.38
2019-05-02T23:41:33.692Z,12.60
2019-05-02T23:44:03.235Z,16.57
2019-05-02T23:46:32.726Z,15.17
2019-05-02T23:49:02.754Z,17.80
2019-05-02T23:51:32.518Z,20.57
2019-05-02T23:54:02.251Z,9.18
2019-05-02T23:56:32.495Z,12.57
2019-05-02T23:59:02.753Z,11.00
